createdAt,value
2023-02-06T00:00:44.885Z,30.92
2023-02-06T00:01:44.941Z,30.63
2023-02-06T00:02:45.010Z,30.29
2023-02-06T00:03:45.064Z,31.53
2023-02-06T00:04:45.072Z,31.15
2023-02-06T00:05:45.184Z,32.81
2023-02-06T00:06:45.166Z,29.16
2023-02-06T00:10:45.339Z,29.25
2023-02-06T00:11:45.374Z,30.81
2023-02-06T00:12:45.426Z,31.89
2023-02-06T00:13:45.487Z,29.30
2023-02-06T00:14:45.470Z,30.97
2023-02-06T00:15:45.595Z,28.54
2023-02-06T00:16:45.620Z,27.78
2023-02-06T00:17:45.613Z,29.57
2023-02-06T00:18:45.647Z,30.09
2023-02-06T00:19:45.706Z,28.76
2023-02-06T00:20:45.748Z,32.10
2023-02-06T00:21:45.775Z,31.61
2023-02-06T00:22:45.887Z,29.69
2023-02-06T00:23:45.861Z,31.48
2023-02-06T00:24:45.857Z,34.66
2023-02-06T00:25:45.913Z,30.80
2023-02-06T00:26:45.926Z,30.60
2023-02-06T00:27:45.985Z,31.51
2023-02-06T00:28:45.962Z,32.48
2023-02-06T00:29:45.994Z,33.57
2023-02-06T00:30:46.066Z,33.13
2023-02-06T00:31:46.043Z,35.47
2023-02-06T00:32:46.044Z,35.05
2023-02-06T00:33:45.995Z,35.33
2023-02-06T00:34:46.020Z,36.61
2023-02-06T00:35:46.015Z,39.21
2023-02-06T00:36:46.033Z,39.12
2023-02-06T00:37:46.029Z,38.64
2023-02-06T00:40:46.057Z,38.48
2023-02-06T00:41:46.097Z,36.33
2023-02-06T00:42:46.095Z,38.10
2023-02-06T00:43:46.186Z,40.76
2023-02-06T00:44:46.229Z,39.99
2023-02-06T00:45:46.246Z,42.86
2023-02-06T00:46:46.368Z,40.13
2023-02-06T00:47:46.383Z,39.09
2023-02-06T00:48:46.428Z,40.40
2023-02-06T00:49:46.491Z,41.76
2023-02-06T00:50:46.520Z,41.32
2023-02-06T00:51:46.605Z,38.55
2023-02-06T00:52:46.681Z,40.08
2023-02-06T00:53:47.476Z,40.90
2023-02-06T00:54:46.722Z,41.30
2023-02-06T00:55:46.782Z,41.13
2023-02-06T00:56:46.833Z,43.11
2023-02-06T00:58:46.933Z,43.27
2023-02-06T00:59:46.972Z,40.95
2023-02-06T01:00:47.057Z,42.21
2023-02-06T01:35:48.973Z,44.68
2023-02-06T01:36:48.969Z,44.88
2023-02-06T01:37:49.036Z,45.81
2023-02-06T01:38:49.063Z,45.21
2023-02-06T01:39:49.134Z,43.64
2023-02-06T01:40:49.136Z,42.87
2023-02-06T01:41:49.222Z,41.60
2023-02-06T01:42:49.252Z,43.03
2023-02-06T03:35:52.485Z,42.22
2023-02-06T03:36:52.483Z,40.02
2023-02-06T03:37:52.510Z,42.43
2023-02-06T03:38:52.493Z,40.64
2023-02-06T03:39:52.500Z,42.11
2023-02-06T03:40:52.482Z,40.30
2023-02-06T03:41:52.535Z,42.52
2023-02-06T03:42:52.548Z,42.01
2023-02-06T03:43:52.563Z,41.40
2023-02-06T03:44:52.556Z,42.29
2023-02-06T03:45:52.583Z,40.90
2023-02-06T03:46:52.531Z,41.69
2023-02-06T03:47:52.585Z,41.70
2023-02-06T03:48:52.709Z,40.64
2023-02-06T03:49:52.700Z,39.85
2023-02-06T03:50:52.731Z,40.73
2023-02-06T03:51:52.710Z,41.64
2023-02-06T03:52:52.689Z,39.03
2023-02-06T03:53:52.701Z,38.91
2023-02-06T03:54:52.782Z,40.63
2023-02-06T03:55:52.734Z,41.43
2023-02-06T03:56:52.738Z,40.48
2023-02-06T03:57:52.815Z,40.67
2023-02-06T03:58:52.783Z,39.41
2023-02-06T03:59:52.769Z,41.52
2023-02-06T04:00:52.806Z,41.06
2023-02-06T04:01:52.825Z,40.53
2023-02-06T04:02:52.806Z,41.40
2023-02-06T04:03:52.846Z,41.07
2023-02-06T04:04:52.815Z,40.41
2023-02-06T04:05:52.821Z,41.82
2023-02-06T04:06:52.883Z,41.74
2023-02-06T04:07:52.899Z,39.02
2023-02-06T04:08:52.894Z,39.16
2023-02-06T04:09:52.926Z,40.20
2023-02-06T04:10:52.890Z,38.02
2023-02-06T04:11:52.901Z,38.78
2023-02-06T04:12:52.982Z,40.49
2023-02-06T04:13:53.068Z,41.67
2023-02-06T04:14:53.159Z,40.55
2023-02-06T04:15:53.257Z,40.50
2023-02-06T04:16:53.352Z,40.49
2023-02-06T04:18:00.589Z,41.14
2023-02-06T04:18:54.436Z,41.31
2023-02-06T04:19:53.443Z,41.25
2023-02-06T04:20:53.423Z,39.38
2023-02-06T04:21:53.416Z,40.00
2023-02-06T04:22:53.427Z,40.54
2023-02-06T04:23:53.385Z,40.41
2023-02-06T04:24:53.365Z,40.85
2023-02-06T04:25:53.374Z,39.78
2023-02-06T04:26:53.414Z,40.52
2023-02-06T04:27:53.420Z,39.74
2023-02-06T04:28:53.381Z,39.35
2023-02-06T04:29:53.323Z,39.59
2023-02-06T04:30:53.386Z,37.15
2023-02-06T04:31:53.342Z,40.08
2023-02-06T04:32:53.345Z,39.57
2023-02-06T04:33:53.358Z,38.02
2023-02-06T04:34:53.312Z,38.68
2023-02-06T04:35:53.314Z,35.95
2023-02-06T04:36:53.313Z,40.17
2023-02-06T04:37:53.274Z,37.77
2023-02-06T04:38:53.319Z,38.85
2023-02-06T04:39:53.297Z,38.52
2023-02-06T04:40:53.278Z,37.95
2023-02-06T04:41:53.272Z,37.51
2023-02-06T04:42:53.270Z,37.55
2023-02-06T04:43:53.256Z,35.89
2023-02-06T04:44:53.222Z,36.82
2023-02-06T04:45:53.250Z,36.27
2023-02-06T04:46:53.231Z,36.51
2023-02-06T04:47:53.248Z,37.56
2023-02-06T04:48:53.218Z,36.70
2023-02-06T04:49:53.194Z,35.78
2023-02-06T04:50:53.191Z,34.05
2023-02-06T04:51:53.188Z,33.65
2023-02-06T04:52:53.181Z,33.80
2023-02-06T04:53:53.207Z,34.48
2023-02-06T04:54:53.203Z,35.92
2023-02-06T04:55:53.235Z,36.00
2023-02-06T04:56:53.277Z,34.06
2023-02-06T04:57:53.252Z,33.36
2023-02-06T04:58:53.295Z,34.07
2023-02-06T04:59:53.264Z,33.45
2023-02-06T05:00:53.285Z,33.38
2023-02-06T05:01:53.360Z,33.34
2023-02-06T05:02:53.461Z,33.01
2023-02-06T05:03:53.434Z,31.76
2023-02-06T05:04:53.421Z,31.09
2023-02-06T05:05:53.437Z,32.84
2023-02-06T05:06:53.456Z,33.92
2023-02-06T05:07:53.489Z,31.00
2023-02-06T05:08:53.480Z,31.22
2023-02-06T05:09:53.526Z,30.49
2023-02-06T05:10:53.568Z,29.29
2023-02-06T05:11:53.542Z,31.38
2023-02-06T05:12:53.611Z,31.74
2023-02-06T05:13:53.593Z,30.34
2023-02-06T05:14:53.595Z,29.88
2023-02-06T05:15:53.720Z,31.89
2023-02-06T05:16:53.728Z,32.30
2023-02-06T05:17:53.689Z,30.23
2023-02-06T05:18:53.724Z,28.60
2023-02-06T05:19:53.722Z,29.05
2023-02-06T05:20:53.767Z,29.47
2023-02-06T05:21:53.772Z,29.25
2023-02-06T05:22:53.821Z,28.60
2023-02-06T05:23:53.868Z,27.32
2023-02-06T05:24:53.897Z,28.85
2023-02-06T05:25:53.899Z,27.85
2023-02-06T05:26:53.916Z,27.07
2023-02-06T05:27:53.974Z,28.39
2023-02-06T05:28:54.012Z,26.49
2023-02-06T05:29:54.003Z,26.63
2023-02-06T05:30:54.112Z,26.71
2023-02-06T05:31:54.119Z,27.05
2023-02-06T05:32:54.116Z,28.04
2023-02-06T05:33:54.156Z,27.89
2023-02-06T05:34:54.176Z,27.02
2023-02-06T05:35:54.231Z,27.48
2023-02-06T05:36:54.256Z,27.62
2023-02-06T05:37:54.290Z,27.90
2023-02-06T05:38:54.346Z,27.69
2023-02-06T05:39:54.379Z,26.35
2023-02-06T05:40:54.410Z,25.87
2023-02-06T05:41:54.472Z,25.86
2023-02-06T05:42:54.491Z,28.50
2023-02-06T05:43:54.545Z,26.41
2023-02-06T05:44:54.570Z,26.12
2023-02-06T05:45:54.621Z,27.54
2023-02-06T05:46:54.641Z,26.52
2023-02-06T05:47:54.662Z,25.79
2023-02-06T05:48:54.706Z,26.42
2023-02-06T05:49:54.752Z,26.69
2023-02-06T05:50:54.804Z,28.03
2023-02-06T05:51:54.804Z,27.11
2023-02-06T05:52:54.905Z,27.21
2023-02-06T05:53:54.892Z,27.27
2023-02-06T05:54:54.937Z,29.28
2023-02-06T05:55:54.982Z,27.36
2023-02-06T05:56:55.013Z,26.22
2023-02-06T05:57:55.060Z,27.96
2023-02-06T05:58:55.174Z,26.52
2023-02-06T05:59:55.122Z,26.58
2023-02-06T06:01:02.742Z,26.80
2023-02-06T06:01:55.176Z,27.25
2023-02-06T06:02:55.165Z,27.39
2023-02-06T06:03:55.174Z,27.97
2023-02-06T06:04:55.171Z,26.91
2023-02-06T06:05:55.124Z,27.14
2023-02-06T06:06:55.154Z,26.81
2023-02-06T06:07:55.138Z,25.00
2023-02-06T06:08:55.130Z,28.06
2023-02-06T06:09:55.143Z,30.19
2023-02-06T06:10:55.121Z,26.03
2023-02-06T06:11:55.131Z,27.56
2023-02-06T06:12:55.147Z,28.12
2023-02-06T06:13:55.115Z,25.79
2023-02-06T06:14:55.098Z,27.88
2023-02-06T06:15:55.102Z,27.46
2023-02-06T06:16:55.066Z,26.31
2023-02-06T06:17:55.097Z,28.18
2023-02-06T06:18:55.101Z,25.51
2023-02-06T06:19:55.118Z,28.27
2023-02-06T06:20:55.141Z,27.39
2023-02-06T06:21:57.814Z,25.09
2023-02-06T06:22:55.204Z,26.94
2023-02-06T06:23:55.215Z,26.16
2023-02-06T06:24:55.228Z,30.13
2023-02-06T06:25:55.193Z,25.61
2023-02-06T06:26:55.237Z,28.64
2023-02-06T06:27:55.216Z,25.67
2023-02-06T06:28:55.184Z,25.56
2023-02-06T06:29:55.155Z,27.72
2023-02-06T06:30:55.174Z,26.85
2023-02-06T06:31:55.228Z,25.68
2023-02-06T06:32:55.730Z,32.32
2023-02-06T06:33:55.227Z,32.84
2023-02-06T06:34:55.157Z,34.24
2023-02-06T06:35:55.166Z,39.42
2023-02-06T06:36:55.179Z,48.53
2023-02-06T06:37:55.129Z,50.12
2023-02-06T06:38:55.775Z,50.90
2023-02-06T06:39:55.157Z,44.71
2023-02-06T06:40:55.108Z,41.97
2023-02-06T06:41:55.098Z,41.64
2023-02-06T06:42:55.114Z,39.16
2023-02-06T06:43:55.294Z,38.83
2023-02-06T06:44:55.067Z,35.44
2023-02-06T06:46:55.065Z,37.36
2023-02-06T06:47:55.037Z,36.20
2023-02-06T06:48:55.280Z,38.07
2023-02-06T06:49:55.033Z,38.84
2023-02-06T06:50:54.985Z,41.26
2023-02-06T06:51:55.027Z,46.26
2023-02-06T06:52:55.007Z,48.96
2023-02-06T06:53:55.251Z,50.76
2023-02-06T06:54:54.966Z,58.18
2023-02-06T06:55:54.970Z,62.88
2023-02-06T06:57:54.994Z,59.97
2023-02-06T06:58:54.992Z,66.89
2023-02-06T06:59:54.943Z,70.12
2023-02-06T07:00:54.992Z,74.55
2023-02-06T07:01:54.959Z,81.14
2023-02-06T07:02:54.969Z,87.20
2023-02-06T07:03:54.926Z,97.01
2023-02-06T07:04:54.949Z,102.40
2023-02-06T07:05:54.892Z,104.68
2023-02-06T07:06:54.944Z,109.73
2023-02-06T07:07:54.901Z,115.52
2023-02-06T07:08:54.903Z,115.12
2023-02-06T07:09:54.892Z,122.08
2023-02-06T07:10:54.860Z,122.99
2023-02-06T07:11:54.870Z,127.40
2023-02-06T07:12:54.885Z,130.38
2023-02-06T07:13:54.835Z,132.91
2023-02-06T07:14:54.897Z,134.11
2023-02-06T07:15:54.813Z,139.77
2023-02-06T07:16:54.869Z,143.41
2023-02-06T07:17:54.874Z,146.92
2023-02-06T07:18:54.827Z,152.44
2023-02-06T07:19:54.874Z,157.18
2023-02-06T07:20:54.886Z,160.83
2023-02-06T07:21:54.929Z,164.67
2023-02-06T07:22:54.979Z,168.75
2023-02-06T07:23:55.030Z,169.29
2023-02-06T07:24:55.067Z,172.95
2023-02-06T07:25:55.109Z,175.16
2023-02-06T07:26:55.183Z,176.65
2023-02-06T07:27:55.255Z,176.21
2023-02-06T07:28:55.248Z,180.45
2023-02-06T07:29:55.817Z,185.14
2023-02-06T07:30:55.351Z,187.21
2023-02-06T07:31:55.423Z,184.60
2023-02-06T07:32:55.374Z,186.02
2023-02-06T07:33:55.434Z,193.06
2023-02-06T07:34:55.448Z,196.37
2023-02-06T07:35:55.453Z,203.59
2023-02-06T07:36:55.485Z,200.14
2023-02-06T07:37:55.514Z,204.82
2023-02-06T07:38:56.305Z,203.61
2023-02-06T07:39:55.616Z,208.36
2023-02-06T07:40:55.588Z,208.47
2023-02-06T07:41:55.645Z,180.43
2023-02-06T07:42:55.713Z,141.00
2023-02-06T07:43:55.727Z,102.34
2023-02-06T07:44:55.859Z,123.76
2023-02-06T07:45:55.848Z,83.78
2023-02-06T07:46:55.938Z,105.64
2023-02-06T07:47:55.902Z,105.72
2023-02-06T07:48:55.963Z,103.77
2023-02-06T07:49:56.098Z,121.86
2023-02-06T07:50:56.075Z,111.74
2023-02-06T07:51:56.160Z,107.68
2023-02-06T07:52:56.160Z,102.02
2023-02-06T07:53:56.273Z,101.32
2023-02-06T07:54:56.269Z,100.44
2023-02-06T07:55:56.359Z,103.90
2023-02-06T07:56:56.349Z,106.70
2023-02-06T07:57:56.439Z,106.63
2023-02-06T07:58:56.412Z,107.87
2023-02-06T07:59:56.409Z,107.53
2023-02-06T08:00:56.463Z,108.43
2023-02-06T08:01:56.418Z,109.66
2023-02-06T08:02:56.452Z,111.78
2023-02-06T08:03:56.494Z,113.93
2023-02-06T08:04:56.786Z,116.26
2023-02-06T08:05:56.558Z,116.89
2023-02-06T08:06:56.567Z,117.28
2023-02-06T08:07:56.567Z,121.54
2023-02-06T08:08:56.581Z,121.29
2023-02-06T08:09:56.548Z,122.12
2023-02-06T08:10:56.554Z,123.12
2023-02-06T08:11:56.663Z,123.15
2023-02-06T08:12:56.749Z,125.00
2023-02-06T08:13:56.842Z,127.45
2023-02-06T08:14:56.889Z,127.85
2023-02-06T08:15:56.955Z,127.96
2023-02-06T08:16:57.017Z,129.14
2023-02-06T08:17:56.942Z,129.78
2023-02-06T08:18:56.986Z,130.38
2023-02-06T08:19:57.021Z,131.36
2023-02-06T08:20:57.037Z,130.15
2023-02-06T08:21:57.037Z,129.97
2023-02-06T08:22:57.224Z,130.60
2023-02-06T08:23:57.192Z,132.14
2023-02-06T08:24:57.297Z,132.36
2023-02-06T08:25:57.348Z,130.21
2023-02-06T08:26:57.409Z,130.43
2023-02-06T08:27:57.531Z,131.65
2023-02-06T08:28:57.572Z,127.71
2023-02-06T08:29:57.804Z,133.19
2023-02-06T08:30:57.704Z,131.18
2023-02-06T08:31:57.717Z,136.31
2023-02-06T08:32:57.704Z,143.65
2023-02-06T08:33:57.717Z,138.34
2023-02-06T08:34:57.816Z,134.33
2023-02-06T08:35:57.717Z,141.56
2023-02-06T08:36:57.731Z,151.57
2023-02-06T08:37:57.732Z,115.01
2023-02-06T08:38:57.772Z,108.27
2023-02-06T08:39:57.775Z,107.53
2023-02-06T08:40:57.833Z,109.57
2023-02-06T08:41:57.856Z,93.06
2023-02-06T08:42:57.943Z,85.07
2023-02-06T08:43:57.986Z,93.47
2023-02-06T08:44:58.047Z,89.50
2023-02-06T08:45:58.088Z,76.28
2023-02-06T08:47:09.335Z,64.84
2023-02-06T08:47:59.117Z,52.15
2023-02-06T08:48:58.064Z,64.85
2023-02-06T08:49:58.083Z,42.39
2023-02-06T08:50:58.061Z,57.72
2023-02-06T08:51:58.130Z,48.44
2023-02-06T08:52:58.043Z,36.60
2023-02-06T08:53:58.057Z,35.09
2023-02-06T08:54:58.061Z,33.11
2023-02-06T08:55:58.005Z,29.29
2023-02-06T08:56:58.030Z,29.57
2023-02-06T08:57:58.075Z,26.93
2023-02-06T08:58:58.139Z,25.00
2023-02-06T08:59:58.348Z,25.00
2023-02-06T09:00:58.207Z,29.43
2023-02-06T09:01:58.233Z,25.45
2023-02-06T09:02:58.291Z,20.72
2023-02-06T09:03:58.395Z,40.84
2023-02-06T09:04:58.446Z,47.02
2023-02-06T09:06:05.580Z,53.12
2023-02-06T09:06:59.543Z,47.64
2023-02-06T09:07:58.472Z,34.56
2023-02-06T09:08:58.507Z,33.94
2023-02-06T09:09:58.480Z,29.30
2023-02-06T09:10:58.455Z,35.38
2023-02-06T09:11:58.443Z,37.89
2023-02-06T09:12:58.457Z,41.88
2023-02-06T09:13:58.453Z,41.48
2023-02-06T09:14:58.430Z,44.61
2023-02-06T09:15:58.486Z,43.98
2023-02-06T09:16:58.494Z,45.82
2023-02-06T09:17:58.555Z,49.66
2023-02-06T09:18:58.565Z,50.52
2023-02-06T09:19:58.590Z,53.91
2023-02-06T09:20:58.602Z,55.92
2023-02-06T09:21:58.568Z,59.05
2023-02-06T09:22:58.641Z,63.02
2023-02-06T09:23:58.691Z,64.28
2023-02-06T09:24:59.437Z,64.16
2023-02-06T09:25:58.655Z,61.48
2023-02-06T09:27:00.430Z,62.73
2023-02-06T09:27:58.767Z,64.91
2023-02-06T09:28:58.803Z,63.30
2023-02-06T09:29:58.895Z,70.27
2023-02-06T09:30:59.423Z,72.19
2023-02-06T09:31:59.018Z,77.64
2023-02-06T09:32:59.112Z,85.03
2023-02-06T09:33:59.214Z,89.91
2023-02-06T09:34:59.369Z,93.71
2023-02-06T09:35:59.202Z,93.25
2023-02-06T09:36:59.290Z,96.36
2023-02-06T09:37:59.261Z,99.01
2023-02-06T09:38:59.337Z,105.31
2023-02-06T09:39:59.431Z,107.74
2023-02-06T09:40:59.857Z,106.99
2023-02-06T09:41:59.486Z,106.20
2023-02-06T09:42:59.556Z,111.15
2023-02-06T09:43:59.632Z,109.97
2023-02-06T09:44:59.665Z,111.35
2023-02-06T09:45:59.740Z,111.25
2023-02-06T09:46:59.779Z,111.77
2023-02-06T09:47:59.832Z,114.58
2023-02-06T09:48:59.914Z,115.19
2023-02-06T09:49:59.957Z,114.93
2023-02-06T09:51:00.321Z,110.63
2023-02-06T09:52:00.112Z,111.01
2023-02-06T09:53:00.155Z,109.10
2023-02-06T09:54:00.245Z,108.26
2023-02-06T09:55:00.249Z,80.42
2023-02-06T09:56:00.369Z,80.73
2023-02-06T09:57:00.401Z,70.46
2023-02-06T09:58:00.466Z,71.06
2023-02-06T09:59:00.624Z,76.64
2023-02-06T10:00:00.711Z,69.81
2023-02-06T10:01:01.104Z,58.55
2023-02-06T10:16:01.432Z,25.24
2023-02-06T10:17:01.174Z,42.14
2023-02-06T10:18:01.158Z,27.72
2023-02-06T10:19:01.172Z,42.54
2023-02-06T10:20:01.198Z,46.90
2023-02-06T10:21:01.409Z,25.00
2023-02-06T10:22:01.268Z,46.66
2023-02-06T10:25:01.324Z,59.40
2023-02-06T10:26:01.386Z,53.34
2023-02-06T10:27:01.374Z,48.39
2023-02-06T10:28:01.467Z,66.11
2023-02-06T10:29:01.457Z,70.61
2023-02-06T10:30:01.467Z,68.51
2023-02-06T10:31:01.710Z,60.93
2023-02-06T10:32:01.657Z,87.24
2023-02-06T10:33:01.594Z,75.22
2023-02-06T10:34:01.687Z,70.87
2023-02-06T10:35:01.691Z,74.99
2023-02-06T10:36:01.724Z,72.91
2023-02-06T10:37:01.915Z,69.87
2023-02-06T10:38:01.842Z,67.32
2023-02-06T10:39:01.910Z,31.50
2023-02-06T10:40:02.147Z,33.18
2023-02-06T10:41:02.458Z,69.63
2023-02-06T10:44:02.179Z,47.24
2023-02-06T10:45:19.090Z,55.10
2023-02-06T10:46:03.222Z,56.34
2023-02-06T10:47:02.650Z,60.58
2023-02-06T10:48:02.266Z,66.53
2023-02-06T10:49:02.273Z,74.40
2023-02-06T10:50:02.192Z,97.28
2023-02-06T10:52:02.392Z,98.24
2023-02-06T10:53:02.184Z,97.97
2023-02-06T10:55:02.259Z,92.35
2023-02-06T10:56:03.861Z,92.73
2023-02-06T10:57:57.102Z,25.00
2023-02-06T10:58:57.027Z,25.00
2023-02-06T10:59:57.005Z,25.00
2023-02-06T11:00:57.152Z,25.00
2023-02-06T11:01:58.653Z,25.00
2023-02-06T11:03:06.764Z,43.50
2023-02-06T11:03:58.134Z,33.65
2023-02-06T11:04:57.128Z,44.50
2023-02-06T11:05:57.123Z,47.91
2023-02-06T11:06:57.141Z,48.55
2023-02-06T11:07:57.098Z,49.77
2023-02-06T11:08:57.100Z,38.10
2023-02-06T11:09:57.106Z,38.75
2023-02-06T11:10:57.124Z,39.79
2023-02-06T11:11:57.246Z,44.57
2023-02-06T11:12:57.096Z,42.09
2023-02-06T11:13:57.028Z,36.20
2023-02-06T11:14:57.046Z,34.71
2023-02-06T11:15:57.029Z,35.32
2023-02-06T11:16:57.233Z,30.55
2023-02-06T11:17:57.054Z,32.37
2023-02-06T11:18:57.153Z,33.11
2023-02-06T11:19:57.654Z,30.88
2023-02-06T11:20:57.242Z,32.63
2023-02-06T11:21:57.772Z,30.94
2023-02-06T11:22:57.271Z,30.18
2023-02-06T11:23:57.276Z,32.56
2023-02-06T11:24:57.327Z,32.50
2023-02-06T11:25:58.260Z,29.87
2023-02-06T11:26:57.455Z,38.02
2023-02-06T11:27:57.483Z,25.00
2023-02-06T11:29:57.534Z,40.42
2023-02-06T11:30:57.677Z,40.80
2023-02-06T11:31:57.691Z,65.82
2023-02-06T11:34:57.764Z,49.35
2023-02-06T11:35:57.959Z,0.00
2023-02-06T11:36:58.252Z,7.51
2023-02-06T11:37:57.904Z,80.48
2023-02-06T11:38:57.955Z,76.76
2023-02-06T11:39:57.928Z,75.34
2023-02-06T11:40:57.945Z,76.99
2023-02-06T11:41:58.289Z,82.11
2023-02-06T11:42:58.090Z,84.33
2023-02-06T11:43:58.060Z,90.86
2023-02-06T11:44:58.075Z,88.78
2023-02-06T11:45:58.165Z,94.08
2023-02-06T11:46:58.093Z,96.49
2023-02-06T11:47:58.124Z,98.88
2023-02-06T11:48:58.159Z,91.20
2023-02-06T11:49:58.246Z,95.03
2023-02-06T11:50:58.277Z,90.63
2023-02-06T11:51:58.357Z,86.61
2023-02-06T11:52:58.223Z,84.44
2023-02-06T11:53:58.232Z,74.77
2023-02-06T11:54:58.237Z,85.67
2023-02-06T11:55:58.304Z,81.56
2023-02-06T12:06:00.361Z,19.95
2023-02-06T12:06:58.780Z,89.33
2023-02-06T12:08:58.590Z,117.95
2023-02-06T12:11:58.559Z,147.97
2023-02-06T12:13:58.661Z,157.04
2023-02-06T12:14:58.562Z,75.52
2023-02-06T12:15:58.549Z,59.95
2023-02-06T12:16:58.785Z,135.94
2023-02-06T12:18:58.545Z,180.30
2023-02-06T12:19:58.529Z,216.37
2023-02-06T12:20:58.481Z,223.75
2023-02-06T12:24:58.449Z,231.67
2023-02-06T12:25:58.462Z,206.74
2023-02-06T12:26:58.528Z,126.58
2023-02-06T15:05:45.509Z,25.00
2023-02-06T15:06:45.493Z,25.00
2023-02-06T15:07:45.476Z,25.00
2023-02-06T15:08:45.491Z,25.00
2023-02-06T15:09:45.480Z,25.00
2023-02-06T15:10:45.444Z,25.00
2023-02-06T15:11:45.494Z,28.61
2023-02-06T15:12:45.461Z,26.90
2023-02-06T15:13:45.453Z,25.90
2023-02-06T15:14:45.409Z,25.00
2023-02-06T15:15:45.420Z,26.99
2023-02-06T15:16:45.442Z,27.43
2023-02-06T15:17:45.434Z,27.82
2023-02-06T15:18:45.433Z,27.40
2023-02-06T15:19:45.388Z,28.85
2023-02-06T15:20:45.372Z,26.07
2023-02-06T15:21:45.410Z,27.73
2023-02-06T15:23:45.368Z,27.39
2023-02-06T15:24:45.368Z,26.02
2023-02-06T15:25:45.428Z,26.80
2023-02-06T15:26:45.432Z,26.09
2023-02-06T15:27:45.472Z,26.02
2023-02-06T15:28:45.471Z,26.10
2023-02-06T15:29:45.522Z,26.16
2023-02-06T15:30:45.567Z,25.92
2023-02-06T15:31:45.601Z,25.66
2023-02-06T15:32:45.593Z,26.80
2023-02-06T15:33:45.609Z,25.76
2023-02-06T15:34:45.663Z,25.93
2023-02-06T15:35:45.662Z,25.77
2023-02-06T15:36:45.720Z,26.24
2023-02-06T15:37:45.785Z,25.00
2023-02-06T15:38:45.784Z,25.36
2023-02-06T15:39:45.773Z,29.17
2023-02-06T15:40:45.876Z,30.31
2023-02-06T15:41:45.835Z,33.36
2023-02-06T15:42:45.920Z,31.08
2023-02-06T15:43:45.931Z,30.80
2023-02-06T15:44:45.945Z,30.29
2023-02-06T15:45:46.045Z,31.28
2023-02-06T15:46:48.389Z,30.63
2023-02-06T15:47:46.037Z,31.28
2023-02-06T15:48:45.981Z,30.88
2023-02-06T15:49:46.032Z,31.28
2023-02-06T15:50:46.000Z,27.64
2023-02-06T15:51:45.969Z,30.51
2023-02-06T15:52:45.961Z,27.56
2023-02-06T15:53:48.385Z,26.66
2023-02-06T15:54:46.152Z,26.82
2023-02-06T15:55:46.172Z,26.80
2023-02-06T15:56:46.179Z,26.41
2023-02-06T15:57:46.168Z,25.79
2023-02-06T15:58:46.191Z,30.76
2023-02-06T15:59:46.228Z,27.37
2023-02-06T16:00:46.274Z,26.11
2023-02-06T18:01:52.453Z,30.12
2023-02-06T18:02:52.502Z,30.01
2023-02-06T18:03:52.492Z,31.15
2023-02-06T18:04:52.565Z,29.03
2023-02-06T18:05:52.630Z,31.50
2023-02-06T18:06:52.642Z,27.85
2023-02-06T18:07:52.759Z,31.19
2023-02-06T18:08:52.778Z,27.38
2023-02-06T18:09:52.845Z,28.63
2023-02-06T18:10:52.892Z,27.63
2023-02-06T18:11:52.911Z,29.21
2023-02-06T18:12:52.995Z,30.68
2023-02-06T18:13:53.023Z,28.62
2023-02-06T18:14:53.102Z,29.11
2023-02-06T18:15:53.231Z,28.30
2023-02-06T18:16:53.331Z,29.52
2023-02-06T18:17:53.344Z,26.11
2023-02-06T18:18:53.352Z,27.48
2023-02-06T18:19:53.371Z,27.29
2023-02-06T18:20:53.432Z,28.98
2023-02-06T18:21:53.484Z,27.94
2023-02-06T18:22:53.577Z,29.18
2023-02-06T18:23:53.646Z,29.15
2023-02-06T18:24:53.723Z,25.00
2023-02-06T18:25:53.706Z,26.36
2023-02-06T18:26:53.751Z,29.87
2023-02-06T18:27:53.847Z,27.46
2023-02-06T18:28:53.842Z,29.20
2023-02-06T18:29:53.893Z,27.43
2023-02-06T18:30:53.980Z,30.78
2023-02-06T18:31:54.077Z,30.69
2023-02-06T18:32:54.039Z,28.67
2023-02-06T18:33:54.111Z,30.83
2023-02-06T18:34:54.166Z,28.30
2023-02-06T18:35:54.205Z,30.50
2023-02-06T18:36:54.233Z,26.80
2023-02-06T18:37:54.300Z,27.90
2023-02-06T18:38:54.311Z,29.03
2023-02-06T18:39:54.348Z,30.16
2023-02-06T18:40:54.420Z,29.50
2023-02-06T18:41:54.417Z,29.37
2023-02-06T18:42:54.476Z,29.59
2023-02-06T18:43:54.509Z,28.55
2023-02-06T18:44:54.604Z,28.84
2023-02-06T18:45:54.597Z,28.84
2023-02-06T18:46:54.708Z,29.36
2023-02-06T18:47:54.727Z,29.30
2023-02-06T18:48:54.774Z,28.03
2023-02-06T18:49:54.885Z,30.03
2023-02-06T18:50:56.481Z,26.65
2023-02-06T18:51:55.047Z,32.64
2023-02-06T18:52:55.082Z,30.90
2023-02-06T18:53:55.161Z,30.08
2023-02-06T18:54:55.240Z,30.42
2023-02-06T18:55:55.229Z,29.80
2023-02-06T18:56:55.331Z,30.83
2023-02-06T18:57:55.404Z,27.52
2023-02-06T18:58:55.460Z,27.20
2023-02-06T18:59:55.471Z,28.66
2023-02-06T19:00:55.568Z,31.09
2023-02-06T19:01:55.619Z,25.00
2023-02-06T19:02:55.587Z,25.00
2023-02-06T19:03:55.640Z,28.36
2023-02-06T19:04:55.699Z,30.70
2023-02-06T19:05:55.714Z,28.37
2023-02-06T19:06:55.774Z,28.03
2023-02-06T19:07:55.801Z,28.02
2023-02-06T19:08:55.832Z,31.00
2023-02-06T19:09:55.885Z,28.97
2023-02-06T19:10:55.939Z,29.49
2023-02-06T19:11:56.023Z,27.35
2023-02-06T19:12:56.055Z,30.76
2023-02-06T19:13:56.139Z,29.46
2023-02-06T19:14:56.125Z,29.47
2023-02-06T19:15:56.198Z,25.54
2023-02-06T19:16:56.213Z,27.52
2023-02-06T19:17:56.371Z,27.55
2023-02-06T19:18:56.313Z,29.62
2023-02-06T19:19:56.331Z,30.24
2023-02-06T19:20:56.390Z,30.72
2023-02-06T19:21:56.440Z,28.21
2023-02-06T19:22:56.494Z,26.75
2023-02-06T19:23:56.520Z,28.92
2023-02-06T19:24:56.570Z,28.20
2023-02-06T19:25:56.604Z,29.62
2023-02-06T19:26:56.667Z,29.27
2023-02-06T19:27:56.748Z,27.58
2023-02-06T19:28:56.795Z,28.68
2023-02-06T19:29:56.793Z,27.12
2023-02-06T19:30:56.948Z,27.89
2023-02-06T19:31:56.938Z,30.86
2023-02-06T19:32:56.937Z,30.22
2023-02-06T19:33:57.026Z,31.02
2023-02-06T19:34:57.089Z,28.18
2023-02-06T19:35:57.103Z,29.66
2023-02-06T19:36:57.147Z,29.57
2023-02-06T19:37:57.225Z,26.95
2023-02-06T19:38:57.231Z,31.67
2023-02-06T19:39:57.269Z,27.62
2023-02-06T19:40:57.313Z,30.47
2023-02-06T19:41:57.330Z,26.88
2023-02-06T19:42:57.411Z,30.35
2023-02-06T19:43:57.405Z,30.93
2023-02-06T19:44:57.424Z,31.94
2023-02-06T19:45:57.436Z,29.85
2023-02-06T19:46:57.581Z,26.91
2023-02-06T19:47:57.495Z,26.93
2023-02-06T19:48:57.496Z,28.16
2023-02-06T19:49:57.553Z,29.21
2023-02-06T19:50:57.522Z,28.15
2023-02-06T19:51:57.551Z,28.65
2023-02-06T19:52:57.625Z,29.40
2023-02-06T19:53:57.637Z,28.19
2023-02-06T19:54:57.675Z,28.14
2023-02-06T19:55:57.702Z,27.93
2023-02-06T19:56:57.693Z,28.78
2023-02-06T19:57:57.751Z,28.69
2023-02-06T19:58:57.815Z,29.37
2023-02-06T19:59:57.785Z,30.25
2023-02-06T20:00:57.847Z,28.74
2023-02-06T20:01:57.842Z,28.36
2023-02-06T20:02:57.890Z,29.07
2023-02-06T20:03:57.880Z,27.53
2023-02-06T20:04:57.881Z,27.34
2023-02-06T20:05:57.873Z,28.22
2023-02-06T20:06:57.857Z,29.87
2023-02-06T20:07:57.925Z,27.35
2023-02-06T20:08:57.933Z,28.00
2023-02-06T20:09:57.894Z,28.10
2023-02-06T20:10:57.891Z,28.05
2023-02-06T20:11:57.920Z,26.80
2023-02-06T20:12:57.947Z,29.51
2023-02-06T20:13:57.932Z,27.60
2023-02-06T20:14:57.943Z,29.51
2023-02-06T20:15:57.980Z,28.14
2023-02-06T20:16:57.962Z,30.41
2023-02-06T20:17:57.975Z,31.51
2023-02-06T20:18:58.021Z,29.58
2023-02-06T20:19:57.959Z,30.31
2023-02-06T20:20:58.002Z,29.93
2023-02-06T20:21:57.950Z,28.32
2023-02-06T20:22:57.991Z,26.71
2023-02-06T20:23:57.955Z,29.87
2023-02-06T20:24:57.960Z,29.02
2023-02-06T20:25:57.964Z,29.09
2023-02-06T20:26:58.005Z,31.54
2023-02-06T20:27:58.034Z,31.29
2023-02-06T20:28:58.005Z,29.17
2023-02-06T20:29:58.025Z,26.52
2023-02-06T20:30:58.059Z,27.57
2023-02-06T20:31:58.097Z,27.56
2023-02-06T20:32:58.020Z,27.61
2023-02-06T20:33:58.030Z,25.09
2023-02-06T20:34:58.030Z,26.86
2023-02-06T20:35:57.999Z,28.59
2023-02-06T20:36:58.023Z,28.75
2023-02-06T20:37:58.025Z,31.27
2023-02-06T20:39:57.994Z,34.18
2023-02-06T20:40:57.990Z,28.18
2023-02-06T20:41:58.045Z,27.75
2023-02-06T20:42:58.011Z,26.95
2023-02-06T20:43:58.054Z,29.37